createdAt,value
2018-10-16T00:00:15.322Z,17.43
2018-10-16T00:02:44.923Z,17.80
2018-10-16T00:05:15.128Z,17.20
2018-10-16T00:07:45.018Z,16.50
2018-10-16T00:10:18.971Z,17.20
2018-10-16T00:12:48.281Z,18.37
2018-10-16T00:15:19.583Z,17.10
2018-10-16T00:17:49.065Z,17.90
2018-10-16T00:20:19.187Z,17.90
2018-10-16T00:22:49.253Z,18.67
2018-10-16T00:25:18.605Z,18.50
2018-10-16T00:27:48.319Z,17.30
2018-10-16T00:30:17.281Z,17.60
2018-10-16T00:32:46.768Z,17.93
2018-10-16T00:35:17.017Z,17.40
2018-10-16T00:37:47.745Z,17.73
2018-10-16T00:40:17.481Z,18.03
2018-10-16T00:42:47.863Z,17.57
2018-10-16T00:45:16.700Z,17.23
2018-10-16T00:47:46.514Z,18.67
2018-10-16T00:50:16.982Z,18.03
2018-10-16T00:52:46.135Z,17.93
2018-10-16T00:55:16.611Z,18.70
2018-10-16T00:57:46.604Z,18.80
2018-10-16T01:00:16.535Z,18.50
2018-10-16T01:02:47.599Z,17.73
2018-10-16T01:05:17.355Z,18.57
2018-10-16T01:07:47.518Z,18.40
2018-10-16T01:10:17.034Z,18.50
2018-10-16T01:12:48.164Z,18.37
2018-10-16T01:15:18.598Z,19.20
2018-10-16T01:17:47.593Z,18.67
2018-10-16T01:20:18.786Z,17.60
2018-10-16T01:22:49.053Z,19.10
2018-10-16T01:25:18.106Z,18.57
2018-10-16T01:27:48.118Z,18.60
2018-10-16T01:30:17.094Z,17.93
2018-10-16T01:32:47.288Z,18.27
2018-10-16T01:35:16.228Z,18.73
2018-10-16T01:37:45.392Z,18.57
2018-10-16T01:40:16.061Z,17.67
2018-10-16T01:42:47.829Z,17.63
2018-10-16T01:45:17.245Z,17.50
2018-10-16T01:47:46.195Z,19.07
2018-10-16T01:50:15.622Z,17.13
2018-10-16T01:52:45.262Z,17.90
2018-10-16T01:55:15.094Z,18.00
2018-10-16T01:57:44.443Z,18.93
2018-10-16T02:00:14.509Z,18.20
2018-10-16T02:02:44.723Z,17.73
2018-10-16T02:05:13.597Z,18.13
2018-10-16T02:07:43.230Z,18.70
2018-10-16T02:10:12.780Z,17.03
2018-10-16T02:12:42.425Z,17.50
2018-10-16T02:15:11.952Z,17.30
2018-10-16T02:17:42.242Z,17.80
2018-10-16T02:20:11.214Z,18.03
2018-10-16T02:22:40.487Z,18.47
2018-10-16T02:25:11.088Z,17.97
2018-10-16T02:27:40.801Z,18.57
2018-10-16T02:30:11.445Z,17.33
2018-10-16T02:32:40.724Z,17.60
2018-10-16T02:35:11.318Z,17.50
2018-10-16T02:37:41.195Z,18.23
2018-10-16T02:40:10.746Z,18.30
2018-10-16T02:42:41.382Z,17.93
2018-10-16T02:45:12.432Z,17.70
2018-10-16T02:47:42.005Z,18.10
2018-10-16T02:50:12.756Z,18.90
2018-10-16T02:52:42.995Z,18.10
2018-10-16T02:55:12.149Z,17.90
2018-10-16T02:57:42.542Z,21.20
2018-10-16T03:00:11.804Z,18.10
2018-10-16T03:02:42.836Z,18.23
2018-10-16T03:05:11.984Z,17.67
2018-10-16T03:07:41.208Z,17.70
2018-10-16T03:10:10.448Z,17.63
2018-10-16T03:12:40.265Z,17.57
2018-10-16T03:15:12.266Z,19.20
2018-10-16T03:17:41.546Z,18.50
2018-10-16T03:20:12.709Z,19.50
2018-10-16T03:22:42.778Z,19.53
2018-10-16T03:25:13.922Z,18.03
2018-10-16T03:27:42.781Z,18.23
2018-10-16T03:30:12.847Z,18.80
2018-10-16T03:32:42.749Z,18.03
2018-10-16T03:35:13.129Z,17.33
2018-10-16T03:37:43.115Z,19.80
2018-10-16T03:40:12.605Z,18.53
2018-10-16T03:42:42.677Z,18.80
2018-10-16T03:45:12.948Z,19.00
2018-10-16T03:47:42.058Z,18.60
2018-10-16T03:50:12.126Z,18.10
2018-10-16T03:52:42.845Z,18.60
2018-10-16T03:55:12.639Z,17.87
2018-10-16T03:57:43.407Z,18.70
2018-10-16T04:00:12.735Z,19.07
2018-10-16T04:02:41.974Z,18.53
2018-10-16T04:05:12.090Z,18.60
2018-10-16T04:07:42.000Z,17.80
2018-10-16T04:10:11.612Z,18.27
2018-10-16T04:12:41.337Z,19.40
2018-10-16T04:15:11.281Z,17.13
2018-10-16T04:17:41.763Z,19.20
2018-10-16T04:20:11.257Z,18.57
2018-10-16T04:22:41.347Z,17.77
2018-10-16T04:25:13.041Z,17.73
2018-10-16T04:27:42.084Z,18.20
2018-10-16T04:30:11.713Z,17.50
2018-10-16T04:32:41.978Z,17.63
2018-10-16T04:35:13.652Z,18.00
2018-10-16T04:37:42.767Z,16.60
2018-10-16T04:40:12.558Z,18.57
2018-10-16T04:42:42.825Z,17.17
2018-10-16T04:45:13.691Z,18.00
2018-10-16T04:47:43.194Z,18.00
2018-10-16T04:50:13.029Z,18.97
2018-10-16T04:52:42.508Z,18.80
2018-10-16T04:55:12.959Z,18.90
2018-10-16T04:57:43.074Z,18.80
2018-10-16T05:00:12.785Z,17.53
2018-10-16T05:02:42.878Z,18.70
2018-10-16T05:05:19.057Z,18.20
2018-10-16T05:07:49.367Z,17.50
2018-10-16T05:10:18.760Z,18.47
2018-10-16T05:12:48.615Z,18.07
2018-10-16T05:15:24.869Z,19.60
2018-10-16T05:17:55.227Z,20.07
2018-10-16T05:20:27.918Z,20.10
2018-10-16T05:22:58.714Z,18.30
2018-10-16T05:25:30.436Z,18.43
2018-10-16T05:27:59.916Z,19.70
2018-10-16T05:30:30.413Z,20.23
2018-10-16T05:33:00.546Z,19.70
2018-10-16T05:35:30.570Z,20.73
2018-10-16T05:38:01.621Z,20.37
2018-10-16T05:40:32.143Z,19.93
2018-10-16T05:43:01.222Z,22.67
2018-10-16T05:45:33.774Z,21.43
2018-10-16T05:48:05.985Z,22.23
2018-10-16T05:50:36.895Z,21.77
2018-10-16T05:53:08.840Z,22.20
2018-10-16T05:55:39.388Z,21.47
2018-10-16T05:58:09.274Z,20.80
2018-10-16T06:00:47.422Z,20.60
2018-10-16T06:03:18.168Z,21.13
2018-10-16T06:05:47.437Z,23.30
2018-10-16T06:10:58.032Z,22.70
2018-10-16T06:13:28.590Z,22.10
2018-10-16T06:15:58.231Z,21.20
2018-10-16T06:18:27.942Z,21.60
2018-10-16T06:21:01.256Z,20.73
2018-10-16T06:23:30.356Z,21.63
2018-10-16T06:25:59.474Z,19.97
2018-10-16T06:28:29.171Z,21.93
2018-10-16T06:30:59.231Z,23.20
2018-10-16T06:33:31.068Z,20.23
2018-10-16T06:36:00.754Z,20.23
2018-10-16T06:38:31.222Z,21.90
2018-10-16T06:41:01.088Z,20.13
2018-10-16T06:43:31.729Z,20.53
2018-10-16T06:46:01.018Z,21.47
2018-10-16T06:48:30.990Z,20.00
2018-10-16T06:51:00.485Z,21.63
2018-10-16T06:53:29.917Z,19.30
2018-10-16T06:55:59.114Z,18.10
2018-10-16T06:58:29.195Z,19.90
2018-10-16T07:00:58.972Z,19.07
2018-10-16T07:03:28.597Z,19.33
2018-10-16T07:05:59.687Z,18.33
2018-10-16T07:08:28.740Z,18.10
2018-10-16T07:10:57.953Z,21.07
2018-10-16T07:13:27.387Z,18.53
2018-10-16T07:15:57.530Z,19.13
2018-10-16T07:18:26.704Z,20.00
2018-10-16T07:20:56.252Z,20.47
2018-10-16T07:23:26.587Z,19.40
2018-10-16T07:25:56.354Z,20.23
2018-10-16T07:28:26.365Z,20.03
2018-10-16T07:30:56.599Z,19.53
2018-10-16T07:33:26.546Z,19.90
2018-10-16T07:35:56.262Z,22.13
2018-10-16T07:38:26.677Z,20.57
2018-10-16T07:40:56.353Z,20.50
2018-10-16T07:43:25.663Z,20.50
2018-10-16T07:45:54.734Z,20.07
2018-10-16T07:48:24.288Z,21.03
2018-10-16T07:50:54.617Z,20.83
2018-10-16T07:53:25.064Z,20.57
2018-10-16T07:55:54.363Z,21.27
2018-10-16T07:58:23.569Z,20.03
2018-10-16T08:00:53.837Z,20.73
2018-10-16T08:03:23.630Z,21.03
2018-10-16T08:05:52.655Z,18.90
2018-10-16T08:08:22.151Z,21.60
2018-10-16T08:10:51.603Z,20.30
2018-10-16T08:13:20.790Z,21.37
2018-10-16T08:15:51.820Z,21.40
2018-10-16T08:18:21.024Z,19.57
2018-10-16T08:20:49.955Z,19.50
2018-10-16T08:23:19.553Z,20.60
2018-10-16T08:25:48.873Z,20.73
2018-10-16T08:28:18.477Z,19.43
2018-10-16T08:30:48.808Z,21.77
2018-10-16T08:33:18.310Z,18.77
2018-10-16T08:35:48.509Z,19.33
2018-10-16T08:39:32.548Z,19.53
2018-10-16T08:44:14.363Z,19.33
2018-10-16T08:46:54.255Z,19.43
2018-10-16T08:49:34.574Z,20.73
2018-10-16T08:52:04.022Z,20.77
2018-10-16T08:54:33.146Z,20.07
2018-10-16T08:57:02.332Z,19.60
2018-10-16T08:59:31.943Z,19.83
2018-10-16T09:02:02.586Z,21.93
2018-10-16T09:04:33.099Z,19.50
2018-10-16T09:07:02.607Z,19.47
2018-10-16T09:09:31.597Z,19.87
2018-10-16T09:12:01.049Z,20.20
2018-10-16T09:14:30.950Z,19.30
2018-10-16T09:17:00.641Z,18.27
2018-10-16T09:19:29.771Z,19.10
2018-10-16T09:21:59.218Z,19.20
2018-10-16T09:24:29.343Z,18.37
2018-10-16T09:26:59.158Z,19.30
2018-10-16T09:29:29.342Z,19.37
2018-10-16T09:31:58.642Z,18.27
2018-10-16T09:34:29.195Z,19.43
2018-10-16T09:36:58.680Z,19.47
2018-10-16T09:39:28.823Z,18.13
2018-10-16T09:41:59.046Z,18.57
2018-10-16T09:44:28.789Z,17.97
2018-10-16T09:46:57.872Z,18.20
2018-10-16T09:49:28.498Z,16.80
2018-10-16T09:51:58.979Z,17.83
2018-10-16T09:54:27.842Z,19.00
2018-10-16T09:56:56.898Z,18.80
2018-10-16T09:59:27.875Z,18.00
2018-10-16T10:01:57.509Z,18.90
2018-10-16T10:04:27.482Z,18.47
2018-10-16T10:06:57.158Z,18.23
2018-10-16T10:09:25.868Z,18.20
2018-10-16T10:11:54.596Z,18.40
2018-10-16T10:14:23.443Z,19.20
2018-10-16T10:16:52.450Z,17.93
2018-10-16T10:19:21.438Z,18.60
2018-10-16T10:21:50.928Z,16.67
2018-10-16T10:24:21.256Z,18.83
2018-10-16T10:26:51.677Z,18.00
2018-10-16T10:29:22.634Z,17.97
2018-10-16T10:31:53.029Z,19.63
2018-10-16T10:34:23.549Z,18.20
2018-10-16T10:36:53.754Z,17.07
2018-10-16T10:39:24.403Z,17.53
2018-10-16T10:41:53.686Z,18.77
2018-10-16T10:44:23.998Z,18.30
2018-10-16T10:46:55.197Z,17.27
2018-10-16T10:49:24.302Z,17.60
2018-10-16T10:51:55.013Z,17.00
2018-10-16T10:54:24.180Z,16.87
2018-10-16T10:56:54.663Z,17.43
2018-10-16T10:59:23.645Z,17.77
2018-10-16T11:01:52.842Z,18.03
2018-10-16T11:04:21.979Z,17.30
2018-10-16T11:06:51.065Z,16.30
2018-10-16T11:09:20.988Z,17.40
2018-10-16T11:11:55.002Z,16.40
2018-10-16T11:14:24.981Z,17.17
2018-10-16T11:16:54.951Z,16.83
2018-10-16T11:19:24.121Z,16.27
2018-10-16T11:21:53.946Z,17.23
2018-10-16T11:24:23.010Z,16.50
2018-10-16T11:26:52.619Z,16.17
2018-10-16T11:29:21.741Z,17.10
2018-10-16T11:31:51.273Z,16.43
2018-10-16T11:34:20.978Z,24.57
2018-10-16T11:36:50.048Z,18.17
2018-10-16T11:39:19.164Z,16.97
2018-10-16T11:41:49.763Z,17.10
2018-10-16T11:44:19.737Z,17.50
2018-10-16T11:46:49.519Z,17.20
2018-10-16T11:49:19.092Z,16.60
2018-10-16T11:51:48.402Z,16.70
2018-10-16T11:54:18.641Z,16.70
2018-10-16T11:56:48.193Z,17.27
2018-10-16T11:59:17.395Z,15.80
2018-10-16T12:01:46.812Z,16.27
2018-10-16T12:04:15.860Z,16.93
2018-10-16T12:06:46.023Z,16.37
2018-10-16T12:09:16.637Z,17.77
2018-10-16T12:11:50.158Z,15.87
2018-10-16T12:14:19.752Z,16.50
2018-10-16T12:17:12.575Z,17.27
2018-10-16T12:20:44.382Z,17.07
2018-10-16T12:23:14.649Z,16.20
2018-10-16T12:25:43.525Z,16.67
2018-10-16T12:28:12.877Z,16.60
2018-10-16T12:30:42.920Z,16.63
2018-10-16T12:33:13.289Z,16.70
2018-10-16T12:35:43.027Z,17.20
2018-10-16T12:38:12.542Z,16.93
2018-10-16T12:40:42.504Z,16.20
2018-10-16T12:43:11.722Z,16.90
2018-10-16T12:45:41.395Z,17.90
2018-10-16T12:48:10.433Z,16.27
2018-10-16T12:50:39.785Z,16.43
2018-10-16T12:53:08.935Z,18.03
2018-10-16T12:55:39.270Z,16.43
2018-10-16T12:58:09.979Z,18.93
2018-10-16T13:00:40.281Z,16.80
2018-10-16T13:03:09.994Z,26.37
2018-10-16T13:05:39.852Z,41.50
2018-10-16T13:08:09.875Z,35.13
2018-10-16T13:10:40.559Z,21.97
2018-10-16T13:13:10.421Z,17.33
2018-10-16T13:15:39.689Z,16.40
2018-10-16T13:18:08.841Z,18.53
2018-10-16T13:20:38.605Z,17.53
2018-10-16T13:23:08.755Z,16.30
2018-10-16T13:25:38.951Z,17.50
2018-10-16T13:28:08.958Z,18.30
2018-10-16T13:30:39.259Z,16.67
2018-10-16T13:33:08.417Z,16.47
2018-10-16T13:35:37.329Z,17.00
2018-10-16T13:38:07.125Z,18.77
2018-10-16T13:40:36.775Z,16.83
2018-10-16T13:43:06.385Z,17.57
2018-10-16T13:45:35.885Z,17.50
2018-10-16T13:48:05.604Z,16.80
2018-10-16T13:50:35.014Z,32.63
2018-10-16T13:53:04.627Z,17.93
2018-10-16T13:55:34.633Z,19.13
2018-10-16T13:58:04.392Z,18.10
2018-10-16T14:00:34.441Z,18.23
2018-10-16T14:03:04.469Z,16.80
2018-10-16T14:05:34.313Z,17.30
2018-10-16T14:08:03.605Z,17.60
2018-10-16T14:10:33.490Z,16.30
2018-10-16T14:13:03.927Z,17.77
2018-10-16T14:15:34.074Z,17.00
2018-10-16T14:18:04.365Z,16.80
2018-10-16T14:20:33.600Z,17.90
2018-10-16T14:23:06.143Z,16.90
2018-10-16T14:25:35.672Z,16.73
2018-10-16T14:28:06.193Z,16.13
2018-10-16T14:30:37.425Z,18.03
2018-10-16T14:33:08.787Z,17.40
2018-10-16T14:35:38.621Z,18.93
2018-10-16T14:38:08.141Z,18.03
2018-10-16T14:40:37.190Z,17.70
2018-10-16T14:43:06.733Z,17.07
2018-10-16T14:45:35.812Z,16.27
2018-10-16T14:48:05.351Z,16.93
2018-10-16T14:50:35.660Z,16.57
2018-10-16T14:53:05.011Z,16.43
2018-10-16T14:55:35.363Z,16.73
2018-10-16T14:58:06.456Z,16.20
2018-10-16T15:00:35.580Z,16.70
2018-10-16T15:03:05.224Z,17.27
2018-10-16T15:05:34.724Z,17.73
2018-10-16T15:08:04.357Z,16.23
2018-10-16T15:10:34.830Z,17.77
2018-10-16T15:13:04.900Z,18.10
2018-10-16T15:15:34.666Z,16.67
2018-10-16T15:18:04.334Z,17.77
2018-10-16T15:20:34.213Z,16.50
2018-10-16T15:23:03.237Z,17.63
2018-10-16T15:25:32.845Z,17.27
2018-10-16T15:28:03.379Z,17.50
2018-10-16T15:30:32.508Z,18.13
2018-10-16T15:33:01.705Z,17.20
2018-10-16T15:35:33.079Z,17.67
2018-10-16T15:38:02.818Z,17.97
2018-10-16T15:40:33.447Z,17.20
2018-10-16T15:43:03.591Z,18.13
2018-10-16T15:45:33.217Z,17.50
2018-10-16T15:48:02.389Z,16.23
2018-10-16T15:50:31.981Z,18.10
2018-10-16T15:53:01.535Z,17.87
2018-10-16T15:55:31.702Z,16.63
2018-10-16T15:58:01.516Z,17.43
2018-10-16T16:00:31.181Z,17.80
2018-10-16T16:03:01.110Z,16.60
2018-10-16T16:05:30.942Z,22.70
2018-10-16T16:08:00.881Z,45.33
2018-10-16T16:10:30.098Z,32.93
2018-10-16T16:12:59.560Z,30.87
2018-10-16T16:15:28.873Z,24.23
2018-10-16T16:17:58.031Z,21.80
2018-10-16T16:20:27.845Z,19.40
2018-10-16T16:22:58.403Z,20.10
2018-10-16T16:25:27.539Z,22.20
2018-10-16T16:27:57.124Z,23.23
2018-10-16T16:30:27.808Z,22.13
2018-10-16T16:32:58.002Z,19.83
2018-10-16T16:35:27.612Z,19.80
2018-10-16T16:37:57.168Z,20.23
2018-10-16T16:40:27.873Z,21.43
2018-10-16T16:42:57.643Z,19.77
2018-10-16T16:45:28.323Z,19.27
2018-10-16T16:47:57.891Z,18.70
2018-10-16T16:50:27.440Z,19.13
2018-10-16T16:52:57.513Z,19.60
2018-10-16T16:55:27.523Z,18.30
2018-10-16T16:57:57.284Z,18.60
2018-10-16T17:00:26.898Z,20.33
2018-10-16T17:02:56.260Z,19.63
2018-10-16T17:05:25.715Z,19.83
2018-10-16T17:07:55.557Z,18.40
2018-10-16T17:10:24.833Z,20.87
2018-10-16T17:12:54.530Z,20.80
2018-10-16T17:15:25.174Z,20.00
2018-10-16T17:17:54.324Z,20.37
2018-10-16T17:20:23.540Z,21.87
2018-10-16T17:22:53.636Z,22.27
2018-10-16T17:25:23.039Z,21.00
2018-10-16T17:27:53.331Z,24.77
2018-10-16T17:30:22.915Z,24.30
2018-10-16T17:32:53.529Z,24.23
2018-10-16T17:35:26.967Z,25.93
2018-10-16T17:37:57.378Z,23.90
2018-10-16T17:40:26.771Z,24.53
2018-10-16T17:42:56.466Z,25.43
2018-10-16T17:45:26.082Z,23.37
2018-10-16T17:47:55.161Z,24.07
2018-10-16T17:50:24.163Z,22.77
2018-10-16T17:52:53.225Z,22.17
2018-10-16T17:55:22.798Z,23.33
2018-10-16T17:57:53.072Z,22.70
2018-10-16T18:00:22.797Z,23.60
2018-10-16T18:02:51.781Z,25.00
2018-10-16T18:05:21.103Z,24.50
2018-10-16T18:07:50.059Z,25.10
2018-10-16T18:10:20.660Z,26.53
2018-10-16T18:12:51.494Z,24.30
2018-10-16T18:15:22.419Z,23.50
2018-10-16T18:17:51.619Z,24.43
2018-10-16T18:20:21.865Z,25.47
2018-10-16T18:22:51.088Z,23.73
2018-10-16T18:25:20.068Z,25.80
2018-10-16T18:27:49.574Z,23.40
2018-10-16T18:30:18.931Z,23.50
2018-10-16T18:32:48.213Z,22.63
2018-10-16T18:35:17.260Z,23.80
2018-10-16T18:37:46.916Z,24.10
2018-10-16T18:40:16.218Z,22.90
2018-10-16T18:42:52.234Z,24.07
2018-10-16T18:45:22.495Z,23.33
2018-10-16T18:47:52.105Z,22.47
2018-10-16T18:50:22.660Z,23.43
2018-10-16T18:52:56.147Z,22.97
2018-10-16T18:55:25.755Z,23.20
2018-10-16T18:57:57.101Z,22.80
2018-10-16T19:00:27.461Z,23.47
2018-10-16T19:02:58.677Z,24.00
2018-10-16T19:05:28.853Z,23.87
2018-10-16T19:07:58.471Z,24.00
2018-10-16T19:10:28.051Z,23.60
2018-10-16T19:12:57.324Z,25.33
2018-10-16T19:15:29.719Z,23.23
2018-10-16T19:18:00.337Z,28.73
2018-10-16T19:20:29.339Z,27.07
2018-10-16T19:22:59.521Z,26.63
2018-10-16T19:25:30.101Z,25.20
2018-10-16T19:27:59.330Z,25.13
2018-10-16T19:30:31.725Z,23.87
2018-10-16T19:33:00.765Z,23.30
2018-10-16T19:35:30.427Z,24.20
2018-10-16T19:38:00.828Z,23.80
2018-10-16T19:40:30.594Z,23.37
2018-10-16T19:43:00.480Z,24.20
2018-10-16T19:45:30.155Z,25.70
2018-10-16T19:48:01.126Z,25.70
2018-10-16T19:50:30.226Z,25.40
2018-10-16T19:53:01.986Z,25.10
2018-10-16T19:55:32.054Z,26.60
2018-10-16T19:58:02.247Z,27.03
2018-10-16T20:00:31.449Z,24.63
2018-10-16T20:03:02.126Z,25.47
2018-10-16T20:05:31.390Z,26.17
2018-10-16T20:08:01.674Z,24.43
2018-10-16T20:10:31.597Z,25.10
2018-10-16T20:13:01.765Z,26.47
2018-10-16T20:15:32.539Z,26.43
2018-10-16T20:18:02.679Z,26.00
2018-10-16T20:20:34.057Z,27.37
2018-10-16T20:23:04.115Z,26.07
2018-10-16T20:25:33.412Z,25.27
2018-10-16T20:28:03.257Z,25.50
2018-10-16T20:30:32.601Z,26.23
2018-10-16T20:33:01.858Z,27.60
2018-10-16T20:35:32.868Z,26.00
2018-10-16T20:38:06.082Z,27.07
2018-10-16T20:40:35.801Z,25.50
2018-10-16T20:43:05.086Z,26.37
2018-10-16T20:45:35.217Z,25.20
2018-10-16T20:48:04.482Z,26.67
2018-10-16T20:50:34.192Z,26.70
2018-10-16T20:53:03.528Z,27.17
2018-10-16T20:55:32.741Z,25.87
2018-10-16T20:58:02.966Z,26.00
2018-10-16T21:00:32.527Z,25.60
2018-10-16T21:03:02.191Z,26.77
2018-10-16T21:05:32.389Z,27.67
2018-10-16T21:08:02.367Z,28.10
2018-10-16T21:10:32.698Z,27.90
2018-10-16T21:13:03.117Z,26.17
2018-10-16T21:15:32.358Z,27.00
2018-10-16T21:18:01.433Z,26.80
2018-10-16T21:20:30.880Z,27.43
2018-10-16T21:22:59.977Z,28.50
2018-10-16T21:25:28.870Z,28.70
2018-10-16T21:27:57.744Z,26.90
2018-10-16T21:30:26.600Z,29.10
2018-10-16T21:32:55.718Z,26.67
2018-10-16T21:35:25.843Z,27.40
2018-10-16T21:37:56.634Z,26.87
2018-10-16T21:40:26.467Z,26.57
2018-10-16T21:42:55.608Z,27.07
2018-10-16T21:45:25.681Z,25.47
2018-10-16T21:47:55.443Z,26.27
2018-10-16T21:50:24.577Z,26.63
2018-10-16T21:52:54.317Z,26.30
2018-10-16T21:55:23.387Z,26.30
2018-10-16T21:57:52.566Z,24.50
2018-10-16T22:00:27.237Z,25.40
2018-10-16T22:02:58.122Z,24.60
2018-10-16T22:05:27.194Z,24.10
2018-10-16T22:07:57.336Z,22.87
2018-10-16T22:10:27.589Z,24.13
2018-10-16T22:12:56.624Z,23.77
2018-10-16T22:15:25.702Z,23.63
2018-10-16T22:17:55.623Z,23.83
2018-10-16T22:20:25.023Z,24.30
2018-10-16T22:22:54.333Z,26.37
2018-10-16T22:25:23.559Z,23.40
2018-10-16T22:27:52.833Z,23.43
2018-10-16T22:30:22.281Z,24.30
2018-10-16T22:32:52.501Z,24.80
2018-10-16T22:35:22.546Z,24.10
2018-10-16T22:37:53.205Z,24.90
2018-10-16T22:40:23.746Z,24.33
2018-10-16T22:42:53.933Z,24.07
2018-10-16T22:45:23.257Z,24.80
2018-10-16T22:47:52.471Z,23.30
2018-10-16T22:50:21.606Z,24.90
2018-10-16T22:52:52.578Z,23.70
2018-10-16T22:55:23.431Z,24.93
2018-10-16T22:57:52.534Z,24.37
2018-10-16T23:00:22.289Z,23.20
2018-10-16T23:02:51.481Z,24.37
2018-10-16T23:05:21.018Z,24.93
2018-10-16T23:07:50.616Z,24.30
2018-10-16T23:10:20.632Z,26.00
2018-10-16T23:12:54.905Z,23.47
2018-10-16T23:15:24.099Z,23.53
2018-10-16T23:17:54.074Z,24.00
2018-10-16T23:20:23.332Z,23.73
2018-10-16T23:22:53.595Z,23.83
2018-10-16T23:25:23.616Z,23.20
2018-10-16T23:27:52.826Z,24.23
2018-10-16T23:30:23.060Z,23.57
2018-10-16T23:32:52.722Z,23.83
2018-10-16T23:35:22.171Z,24.57
2018-10-16T23:37:51.962Z,24.30
2018-10-16T23:40:23.138Z,24.47
2018-10-16T23:42:53.683Z,26.27
2018-10-16T23:45:22.910Z,24.60
2018-10-16T23:47:52.157Z,24.63
2018-10-16T23:50:23.572Z,24.87
2018-10-16T23:52:53.174Z,25.37
2018-10-16T23:55:23.129Z,25.00
2018-10-16T23:57:52.573Z,24.07
